createdAt,value
2019-03-10T00:00:29.650Z,9.50
2019-03-10T00:02:58.061Z,9.60
2019-03-10T00:05:26.656Z,9.60
2019-03-10T00:07:55.297Z,9.60
2019-03-10T00:10:23.817Z,9.60
2019-03-10T00:12:53.217Z,9.60
2019-03-10T00:15:21.821Z,9.60
2019-03-10T00:17:50.760Z,9.60
2019-03-10T00:20:19.285Z,9.60
2019-03-10T00:22:47.772Z,9.50
2019-03-10T00:25:17.979Z,9.60
2019-03-10T00:27:46.467Z,9.60
2019-03-10T00:30:17.031Z,9.60
2019-03-10T00:32:45.552Z,9.60
2019-03-10T00:35:14.303Z,9.60
2019-03-10T00:37:42.921Z,9.60
2019-03-10T00:40:36.512Z,9.60
2019-03-10T00:43:24.548Z,9.60
2019-03-10T00:46:30.481Z,9.50
2019-03-10T00:49:24.052Z,9.50
2019-03-10T00:52:01.508Z,9.50
2019-03-10T00:54:30.061Z,9.50
2019-03-10T00:56:58.544Z,9.50
2019-03-10T00:59:27.054Z,9.40
2019-03-10T01:01:55.469Z,9.40
2019-03-10T01:04:24.912Z,9.40
2019-03-10T01:06:53.657Z,9.40
2019-03-10T01:09:22.124Z,9.40
2019-03-10T01:11:50.699Z,9.40
2019-03-10T01:14:19.127Z,9.40
2019-03-10T01:16:47.908Z,9.40
2019-03-10T01:19:17.600Z,9.40
2019-03-10T01:21:48.380Z,9.30
2019-03-10T01:24:16.821Z,9.30
2019-03-10T01:26:45.299Z,9.40
2019-03-10T01:29:13.840Z,9.30
2019-03-10T01:32:03.353Z,9.30
2019-03-10T01:34:49.754Z,9.30
2019-03-10T01:37:18.189Z,9.30
2019-03-10T01:39:46.621Z,9.30
2019-03-10T01:42:15.117Z,9.30
2019-03-10T01:44:43.557Z,9.30
2019-03-10T01:47:11.976Z,9.30
2019-03-10T01:49:40.409Z,9.20
2019-03-10T01:52:08.834Z,9.20
2019-03-10T01:54:37.243Z,9.30
2019-03-10T01:57:05.689Z,9.20
2019-03-10T01:59:34.118Z,9.20
2019-03-10T02:02:02.630Z,9.20
2019-03-10T02:04:31.075Z,9.30
2019-03-10T02:06:59.592Z,9.30
2019-03-10T02:09:28.938Z,9.20
2019-03-10T02:11:57.360Z,9.20
2019-03-10T02:14:25.881Z,9.20
2019-03-10T02:16:54.367Z,9.10
2019-03-10T02:19:22.815Z,9.20
2019-03-10T02:21:51.318Z,9.20
2019-03-10T02:24:23.755Z,9.20
2019-03-10T02:26:49.907Z,9.20
2019-03-10T02:29:18.317Z,9.20
2019-03-10T02:31:46.779Z,9.20
2019-03-10T02:34:15.277Z,9.20
2019-03-10T02:36:43.857Z,9.20
2019-03-10T02:39:12.296Z,9.20
2019-03-10T02:41:40.775Z,9.30
2019-03-10T02:44:09.267Z,9.20
2019-03-10T02:46:37.867Z,9.20
2019-03-10T02:49:06.300Z,9.20
2019-03-10T02:51:34.851Z,9.20
2019-03-10T02:54:03.284Z,9.20
2019-03-10T02:56:31.726Z,9.20
2019-03-10T02:59:00.251Z,9.20
2019-03-10T03:01:28.706Z,9.20
2019-03-10T03:03:57.124Z,9.30
2019-03-10T03:06:25.618Z,9.30
2019-03-10T03:08:54.134Z,9.30
2019-03-10T03:11:22.585Z,9.30
2019-03-10T03:13:51.066Z,9.30
2019-03-10T03:16:19.522Z,9.30
2019-03-10T03:18:47.956Z,9.20
2019-03-10T03:21:16.386Z,9.10
2019-03-10T03:23:44.843Z,9.00
2019-03-10T03:26:13.291Z,8.90
2019-03-10T03:28:41.704Z,8.80
2019-03-10T03:31:10.149Z,8.70
2019-03-10T03:33:38.598Z,8.70
2019-03-10T03:36:10.167Z,8.60
2019-03-10T03:38:44.728Z,8.50
2019-03-10T03:41:26.338Z,8.40
2019-03-10T03:43:54.773Z,8.40
2019-03-10T03:46:23.272Z,8.40
2019-03-10T03:48:51.701Z,8.30
2019-03-10T03:51:20.181Z,8.30
2019-03-10T03:53:48.624Z,8.30
2019-03-10T03:56:17.141Z,8.20
2019-03-10T03:58:45.583Z,8.10
2019-03-10T04:01:24.353Z,8.10
2019-03-10T04:03:52.802Z,8.10
2019-03-10T04:06:21.259Z,8.10
2019-03-10T04:08:49.759Z,8.00
2019-03-10T04:11:18.303Z,8.10
2019-03-10T04:13:46.744Z,8.00
2019-03-10T04:16:15.252Z,8.00
2019-03-10T04:18:43.721Z,8.00
2019-03-10T04:21:12.203Z,7.90
2019-03-10T04:23:40.611Z,7.90
2019-03-10T04:26:09.048Z,7.90
2019-03-10T04:28:37.510Z,7.90
2019-03-10T04:31:05.950Z,7.90
2019-03-10T04:33:34.386Z,7.90
2019-03-10T04:36:02.843Z,7.80
2019-03-10T04:38:31.252Z,7.90
2019-03-10T04:40:59.699Z,7.90
2019-03-10T04:43:28.135Z,7.90
2019-03-10T04:45:57.521Z,7.80
2019-03-10T04:48:26.011Z,7.70
2019-03-10T04:50:54.544Z,7.70
2019-03-10T04:53:23.050Z,7.70
2019-03-10T04:55:56.277Z,7.70
2019-03-10T04:58:25.682Z,7.60
2019-03-10T05:00:55.757Z,7.50
2019-03-10T05:03:24.172Z,7.50
2019-03-10T05:05:52.636Z,7.40
2019-03-10T05:08:21.092Z,7.30
2019-03-10T05:10:49.504Z,7.30
2019-03-10T05:13:17.971Z,7.20
2019-03-10T05:15:46.432Z,7.10
2019-03-10T05:18:14.877Z,7.10
2019-03-10T05:20:43.449Z,7.10
2019-03-10T05:23:26.687Z,7.10
2019-03-10T05:25:55.814Z,7.00
2019-03-10T05:28:24.216Z,7.00
2019-03-10T05:30:52.856Z,7.00
2019-03-10T05:33:21.311Z,7.00
2019-03-10T05:35:49.894Z,6.90
2019-03-10T05:38:20.097Z,6.90
2019-03-10T05:40:48.597Z,6.90
2019-03-10T05:43:17.049Z,6.90
2019-03-10T05:45:45.542Z,6.90
2019-03-10T05:48:13.988Z,6.90
2019-03-10T05:50:42.411Z,6.90
2019-03-10T05:53:10.868Z,6.90
2019-03-10T05:55:39.300Z,6.90
2019-03-10T05:58:07.756Z,6.80
2019-03-10T06:00:42.520Z,6.80
2019-03-10T06:03:07.256Z,6.80
2019-03-10T06:05:35.715Z,6.80
2019-03-10T06:08:04.209Z,6.90
2019-03-10T06:10:32.636Z,6.80
2019-03-10T06:13:01.104Z,6.90
2019-03-10T06:15:29.520Z,7.00
2019-03-10T06:17:57.962Z,7.00
2019-03-10T06:20:26.701Z,6.90
2019-03-10T06:22:55.145Z,6.90
2019-03-10T06:25:23.572Z,6.80
2019-03-10T06:27:52.077Z,6.80
2019-03-10T06:30:20.481Z,6.70
2019-03-10T06:32:48.911Z,6.80
2019-03-10T06:35:17.700Z,6.70
2019-03-10T06:37:46.108Z,6.90
2019-03-10T06:40:14.604Z,6.90
2019-03-10T06:42:43.123Z,6.80
2019-03-10T06:45:12.126Z,6.80
2019-03-10T06:47:40.527Z,6.80
2019-03-10T06:50:12.405Z,6.80
2019-03-10T06:52:41.002Z,6.90
2019-03-10T06:55:09.884Z,6.90
2019-03-10T06:57:38.722Z,6.80
2019-03-10T07:00:12.583Z,6.80
2019-03-10T07:02:41.906Z,7.00
2019-03-10T07:05:11.993Z,7.00
2019-03-10T07:07:40.418Z,7.00
2019-03-10T07:10:11.634Z,7.00
2019-03-10T07:12:40.120Z,7.00
2019-03-10T07:15:11.195Z,6.90
2019-03-10T07:17:39.732Z,6.90
2019-03-10T07:20:19.140Z,6.90
2019-03-10T07:22:47.665Z,6.90
2019-03-10T07:25:16.114Z,7.00
2019-03-10T07:27:58.025Z,7.50
2019-03-10T07:30:28.110Z,7.60
2019-03-10T07:32:58.168Z,7.50
2019-03-10T07:35:44.158Z,7.40
2019-03-10T07:38:14.198Z,7.50
2019-03-10T07:40:53.288Z,7.50
2019-03-10T07:43:23.346Z,7.60
2019-03-10T07:45:53.428Z,7.80
2019-03-10T07:48:35.334Z,7.70
2019-03-10T07:51:08.186Z,7.70
2019-03-10T07:53:54.108Z,7.70
2019-03-10T07:56:24.176Z,7.70
2019-03-10T07:58:59.966Z,7.80
2019-03-10T08:01:32.926Z,8.30
2019-03-10T08:04:03.084Z,8.70
2019-03-10T08:06:42.203Z,8.70
2019-03-10T08:09:15.032Z,8.90
2019-03-10T08:12:01.388Z,9.00
2019-03-10T08:14:37.060Z,9.30
2019-03-10T08:17:10.160Z,9.40
2019-03-10T08:19:52.048Z,9.40
2019-03-10T08:22:37.998Z,9.50
2019-03-10T08:25:09.330Z,9.60
2019-03-10T08:27:39.459Z,9.90
2019-03-10T08:30:10.857Z,10.20
2019-03-10T08:32:43.944Z,10.50
2019-03-10T08:35:16.938Z,10.90
2019-03-10T08:37:53.051Z,11.30
2019-03-10T08:40:25.900Z,11.70
2019-03-10T08:43:12.172Z,12.00
2019-03-10T08:45:42.228Z,12.10
2019-03-10T08:48:18.424Z,12.00
2019-03-10T08:51:00.703Z,12.10
2019-03-10T08:53:33.489Z,12.00
2019-03-10T08:56:09.323Z,12.00
2019-03-10T08:58:42.162Z,11.90
2019-03-10T09:01:28.287Z,12.10
2019-03-10T09:04:01.197Z,12.20
2019-03-10T09:06:39.936Z,12.60
2019-03-10T09:09:10.047Z,13.00
2019-03-10T09:11:54.620Z,13.40
2019-03-10T09:14:24.770Z,13.70
2019-03-10T09:17:09.997Z,13.70
2019-03-10T09:19:45.868Z,13.60
2019-03-10T09:22:16.856Z,13.40
2019-03-10T09:25:03.208Z,13.30
2019-03-10T09:27:33.274Z,13.10
2019-03-10T09:30:15.216Z,13.00
2019-03-10T09:32:57.129Z,12.90
2019-03-10T09:35:29.645Z,12.90
2019-03-10T09:38:03.756Z,12.90
2019-03-10T09:40:43.080Z,12.80
2019-03-10T09:43:13.131Z,12.60
2019-03-10T09:45:52.137Z,12.50
2019-03-10T09:48:28.026Z,12.50
2019-03-10T09:51:04.124Z,12.70
2019-03-10T09:53:37.005Z,12.90
2019-03-10T09:56:22.919Z,12.90
2019-03-10T09:58:55.784Z,12.90
2019-03-10T10:01:28.650Z,12.90
2019-03-10T10:04:01.247Z,13.10
2019-03-10T10:06:45.999Z,13.10
2019-03-10T10:09:32.169Z,13.20
2019-03-10T10:12:12.740Z,13.40
2019-03-10T10:14:37.522Z,13.60
2019-03-10T10:17:10.629Z,13.70
2019-03-10T10:19:43.282Z,13.90
2019-03-10T10:22:14.263Z,14.10
2019-03-10T10:24:59.555Z,14.10
2019-03-10T10:27:29.635Z,14.20
2019-03-10T10:30:04.159Z,14.10
2019-03-10T10:32:36.822Z,13.90
2019-03-10T10:35:29.181Z,13.70
2019-03-10T10:38:17.922Z,13.60
2019-03-10T10:40:45.668Z,13.30
2019-03-10T10:43:17.889Z,13.10
2019-03-10T10:45:50.785Z,13.00
2019-03-10T10:48:27.894Z,12.90
2019-03-10T10:50:57.981Z,12.80
2019-03-10T10:53:36.565Z,12.50
2019-03-10T10:56:12.193Z,12.40
2019-03-10T10:59:00.216Z,12.30
2019-03-10T11:01:36.433Z,12.30
2019-03-10T11:04:12.454Z,12.30
2019-03-10T11:06:45.685Z,12.40
2019-03-10T11:09:21.543Z,12.50
2019-03-10T11:11:52.837Z,12.60
2019-03-10T11:14:32.194Z,12.80
2019-03-10T11:17:18.525Z,12.80
2019-03-10T11:20:00.713Z,12.90
2019-03-10T11:22:33.479Z,13.00
2019-03-10T11:25:03.605Z,13.00
2019-03-10T11:27:39.432Z,13.00
2019-03-10T11:30:28.252Z,13.20
2019-03-10T11:33:14.135Z,13.30
2019-03-10T11:35:44.317Z,13.20
2019-03-10T11:38:17.392Z,13.30
2019-03-10T11:40:47.516Z,13.50
2019-03-10T11:43:29.460Z,13.60
2019-03-10T11:46:16.775Z,13.60
2019-03-10T11:48:46.860Z,13.40
2019-03-10T11:51:26.030Z,13.10
2019-03-10T11:54:11.265Z,13.00
2019-03-10T11:56:47.362Z,13.00
2019-03-10T11:59:19.952Z,13.20
2019-03-10T12:01:59.187Z,13.50
2019-03-10T12:04:32.685Z,13.60
2019-03-10T12:07:03.726Z,13.70
2019-03-10T12:09:41.970Z,13.70
2019-03-10T12:12:14.770Z,13.80
2019-03-10T12:14:43.794Z,13.80
2019-03-10T12:17:12.261Z,13.80
2019-03-10T12:19:40.716Z,13.80
2019-03-10T12:22:09.131Z,13.90
2019-03-10T12:24:37.586Z,13.90
2019-03-10T12:27:06.156Z,14.00
2019-03-10T12:29:37.744Z,14.00
2019-03-10T12:32:06.159Z,14.00
2019-03-10T12:34:34.694Z,14.00
2019-03-10T12:37:05.352Z,13.90
2019-03-10T12:39:36.440Z,13.80
2019-03-10T12:42:05.382Z,13.60
2019-03-10T12:44:34.138Z,13.40
2019-03-10T12:47:06.769Z,13.30
2019-03-10T12:49:35.910Z,13.30
2019-03-10T12:52:04.347Z,13.10
2019-03-10T12:54:37.394Z,12.90
2019-03-10T12:57:08.358Z,12.90
2019-03-10T12:59:40.868Z,12.90
2019-03-10T13:02:12.654Z,12.90
2019-03-10T13:04:39.869Z,12.90
2019-03-10T13:07:08.361Z,13.00
2019-03-10T13:09:36.780Z,13.10
2019-03-10T13:12:05.291Z,13.30
2019-03-10T13:14:33.726Z,13.40
2019-03-10T13:17:03.097Z,13.40
2019-03-10T13:19:31.531Z,13.30
2019-03-10T13:22:00.010Z,13.40
2019-03-10T13:24:28.451Z,13.40
2019-03-10T13:26:56.921Z,13.50
2019-03-10T13:29:25.362Z,13.50
2019-03-10T13:31:53.878Z,13.30
2019-03-10T13:34:22.320Z,13.10
2019-03-10T13:36:51.184Z,13.00
2019-03-10T13:39:19.690Z,13.10
2019-03-10T13:41:48.121Z,13.30
2019-03-10T13:44:17.221Z,13.30
2019-03-10T13:46:45.737Z,13.50
2019-03-10T13:49:14.154Z,13.80
2019-03-10T13:51:42.597Z,14.00
2019-03-10T13:54:11.083Z,13.90
2019-03-10T13:56:39.523Z,13.90
2019-03-10T13:59:08.225Z,13.90
2019-03-10T14:01:36.714Z,13.90
2019-03-10T14:04:05.193Z,14.00
2019-03-10T14:06:34.647Z,14.00
2019-03-10T14:09:04.611Z,14.00
2019-03-10T14:11:33.241Z,13.80
2019-03-10T14:14:01.710Z,13.80
2019-03-10T14:16:30.185Z,13.70
2019-03-10T14:18:58.662Z,13.40
2019-03-10T14:21:27.090Z,13.20
2019-03-10T14:23:55.525Z,13.10
2019-03-10T14:26:24.160Z,13.10
2019-03-10T14:28:52.655Z,13.10
2019-03-10T14:31:21.199Z,13.10
2019-03-10T14:33:49.673Z,13.10
2019-03-10T14:36:18.252Z,12.80
2019-03-10T14:38:46.831Z,12.60
2019-03-10T14:41:15.313Z,12.60
2019-03-10T14:43:43.822Z,12.60
2019-03-10T14:46:12.274Z,12.60
2019-03-10T14:48:40.721Z,12.60
2019-03-10T14:51:13.879Z,12.60
2019-03-10T14:53:42.509Z,12.70
2019-03-10T14:56:11.007Z,12.60
2019-03-10T14:58:39.462Z,12.40
2019-03-10T15:01:09.242Z,12.30
2019-03-10T15:03:37.702Z,12.10
2019-03-10T15:06:06.837Z,12.00
2019-03-10T15:08:35.276Z,12.00
2019-03-10T15:11:03.937Z,12.00
2019-03-10T15:13:32.354Z,12.00
2019-03-10T15:16:00.800Z,11.80
2019-03-10T15:18:29.213Z,11.70
2019-03-10T15:20:57.704Z,11.70
2019-03-10T15:23:26.155Z,11.70
2019-03-10T15:25:54.603Z,11.80
2019-03-10T15:28:23.127Z,11.60
2019-03-10T15:30:54.814Z,11.50
2019-03-10T15:33:23.297Z,11.50
2019-03-10T15:35:51.906Z,11.40
2019-03-10T15:38:20.345Z,11.40
2019-03-10T15:40:48.919Z,11.30
2019-03-10T15:43:17.359Z,11.20
2019-03-10T15:45:45.831Z,11.10
2019-03-10T15:48:14.309Z,11.10
2019-03-10T15:50:42.754Z,11.00
2019-03-10T15:53:11.432Z,11.10
2019-03-10T15:55:39.852Z,11.10
2019-03-10T15:58:08.431Z,11.00
2019-03-10T16:00:36.937Z,11.00
2019-03-10T16:03:05.436Z,11.00
2019-03-10T16:05:33.930Z,10.90
2019-03-10T16:08:02.451Z,10.90
2019-03-10T16:10:30.877Z,10.90
2019-03-10T16:12:59.305Z,10.90
2019-03-10T16:15:29.130Z,10.80
2019-03-10T16:17:57.846Z,10.80
2019-03-10T16:20:26.755Z,10.70
2019-03-10T16:22:55.599Z,10.50
2019-03-10T16:25:24.187Z,10.30
2019-03-10T16:27:52.600Z,10.20
2019-03-10T16:30:28.374Z,10.10
2019-03-10T16:32:56.854Z,9.90
2019-03-10T16:35:25.416Z,9.90
2019-03-10T16:37:53.857Z,9.80
2019-03-10T16:40:22.458Z,9.80
2019-03-10T16:42:51.017Z,9.80
2019-03-10T16:45:26.049Z,9.70
2019-03-10T16:47:54.456Z,9.50
2019-03-10T16:50:24.445Z,9.40
2019-03-10T16:52:53.050Z,9.30
2019-03-10T16:55:21.560Z,9.20
2019-03-10T16:57:50.016Z,9.20
2019-03-10T17:00:21.842Z,9.30
2019-03-10T17:02:51.416Z,9.30
2019-03-10T17:05:20.658Z,9.30
2019-03-10T17:07:49.332Z,9.30
2019-03-10T17:10:24.819Z,9.30
2019-03-10T17:12:53.316Z,9.50
2019-03-10T17:15:22.933Z,9.50
